Time;durP1;ratioP1;P1;durP2;ratioP2;P2;SDS_P1;SDS_P2;PMS_P1;PMS_P2;Temp;Humidity;BMP_temperature;BMP_pressure;BME280_temperature;BME280_humidity;BME280_pressure;Samples;Min_cycle;Max_cycle;Signal;HPM_P1;HPM_P2
2022/04/04 00:01:51;;;;;;;10.50;6.13;;;;;;;3.12;69.40;101834.72;5253350;28;20427;-77
2022/04/04 00:04:22;;;;;;;7.70;5.47;;;;;;;3.07;69.56;101831.31;5254863;28;20365;-77
2022/04/04 00:06:54;;;;;;;7.80;5.73;;;;;;;3.05;69.42;101827.91;5254064;28;20020;-77
2022/04/04 00:09:25;;;;;;;9.63;6.27;;;;;;;3.07;69.69;101823.53;5235510;28;20581;-77
2022/04/04 00:11:57;;;;;;;8.67;5.80;;;;;;;2.94;69.82;101827.16;5254066;28;20029;-77
2022/04/04 00:14:28;;;;;;;11.20;6.17;;;;;;;3.02;69.81;101823.59;5252457;28;20025;-77
2022/04/04 00:17:02;;;;;;;9.93;5.93;;;;;;;3.07;69.54;101825.28;5254493;28;20037;-77
2022/04/04 00:19:34;;;;;;;8.02;5.60;;;;;;;2.99;69.93;101821.06;5253844;28;20597;-77
2022/04/04 00:22:05;;;;;;;8.97;5.90;;;;;;;2.93;70.00;101807.34;5254462;28;20033;-77
2022/04/04 00:24:36;;;;;;;7.67;5.37;;;;;;;2.97;70.01;101814.19;5253669;28;20037;-77
2022/04/04 00:27:08;;;;;;;11.73;5.73;;;;;;;2.88;70.37;101804.81;5254235;28;20040;-77
2022/04/04 00:29:39;;;;;;;7.87;5.67;;;;;;;2.76;70.90;101801.47;5252974;28;20037;-77
2022/04/04 00:32:11;;;;;;;10.53;6.83;;;;;;;2.80;70.60;101804.03;5254288;28;20547;-77
2022/04/04 00:34:42;;;;;;;11.40;5.80;;;;;;;2.79;70.63;101790.25;5254006;28;20025;-77
2022/04/04 00:37:13;;;;;;;9.77;5.83;;;;;;;2.71;71.00;101784.28;5236011;28;20836;-77
2022/04/04 00:39:44;;;;;;;9.60;6.27;;;;;;;2.75;71.01;101793.75;5253847;28;20530;-76
2022/04/04 00:42:16;;;;;;;9.63;6.10;;;;;;;2.64;71.40;101776.63;5234910;28;20543;-76
2022/04/04 00:44:47;;;;;;;10.97;6.60;;;;;;;2.65;70.85;101786.06;5252828;28;20434;-77
2022/04/04 00:47:19;;;;;;;9.53;6.10;;;;;;;2.64;71.44;101781.78;5235780;28;20033;-77
2022/04/04 00:49:50;;;;;;;9.03;6.70;;;;;;;2.69;71.04;101779.16;5254859;28;20477;-77
2022/04/04 00:52:21;;;;;;;10.50;6.23;;;;;;;2.52;72.02;101777.63;5258051;28;20025;-77
2022/04/04 00:54:53;;;;;;;11.13;6.13;;;;;;;2.57;71.29;101767.22;5236042;28;20016;-77
2022/04/04 00:57:24;;;;;;;12.10;6.23;;;;;;;2.58;71.57;101766.34;5253331;28;20043;-77
2022/04/04 00:59:55;;;;;;;11.87;6.33;;;;;;;2.42;72.60;101778.59;5234255;28;20748;-77
2022/04/04 01:02:26;;;;;;;8.83;6.37;;;;;;;2.42;72.16;101761.34;5253273;28;20025;-77
2022/04/04 01:04:58;;;;;;;10.60;6.60;;;;;;;2.39;71.92;101748.44;5252683;28;20037;-78
2022/04/04 01:07:29;;;;;;;10.77;6.77;;;;;;;2.43;72.22;101754.44;5253062;28;20021;-77
2022/04/04 01:10:01;;;;;;;8.87;7.30;;;;;;;2.44;71.94;101747.53;5252742;28;20068;-76
2022/04/04 01:12:33;;;;;;;9.27;6.73;;;;;;;2.42;72.18;101752.72;5252863;28;20024;-76
2022/04/04 01:15:04;;;;;;;10.83;7.13;;;;;;;2.34;72.28;101742.44;5270632;22;20051;-79
2022/04/04 01:17:35;;;;;;;10.27;6.93;;;;;;;2.29;72.36;101728.72;5254613;28;20033;-77
2022/04/04 01:20:07;;;;;;;9.20;6.37;;;;;;;2.34;72.11;101731.28;5253673;28;20021;-77
2022/04/04 01:22:39;;;;;;;10.27;6.20;;;;;;;2.33;72.13;101724.38;5235556;28;20017;-77
2022/04/04 01:25:10;;;;;;;10.27;6.60;;;;;;;2.32;72.00;101722.69;5252989;28;20024;-77
2022/04/04 01:27:45;;;;;;;10.20;7.03;;;;;;;2.34;71.73;101716.59;5253884;28;20028;-78
2022/04/04 01:30:16;;;;;;;9.13;6.73;;;;;;;2.35;71.79;101717.47;5233966;28;20036;-78
2022/04/04 01:32:49;;;;;;;6.60;5.73;;;;;;;2.27;71.92;101702.06;5235905;28;20009;-79
2022/04/04 01:35:21;;;;;;;12.00;6.97;;;;;;;2.27;72.04;101709.81;5252800;28;20021;-78
2022/04/04 01:37:53;;;;;;;8.67;7.03;;;;;;;2.26;71.65;101703.78;5253027;28;20087;-78
2022/04/04 01:40:24;;;;;;;12.83;7.50;;;;;;;2.17;72.32;101691.81;5252394;28;20024;-78
2022/04/04 01:42:56;;;;;;;10.13;6.43;;;;;;;2.22;71.81;101690.88;5241915;28;20471;-78
2022/04/04 01:48:17;;;;;;;13.37;7.10;;;;;;;1.94;71.71;101635.19;5240115;28;20853;-78
2022/04/04 01:50:48;;;;;;;9.97;6.83;;;;;;;2.08;72.09;101665.22;5252715;28;20558;-78
2022/04/04 01:53:25;;;;;;;11.87;7.43;;;;;;;2.03;72.17;101665.25;5253020;28;20029;-78
2022/04/04 01:55:59;;;;;;;10.03;6.63;;;;;;;2.11;72.31;101667.75;5252591;28;20468;-78
2022/04/04 01:58:32;;;;;;;12.13;8.88;;;;;;;2.11;72.05;101657.41;5252245;28;20301;-78
2022/04/04 02:01:10;;;;;;;8.60;6.50;;;;;;;2.07;72.16;101656.59;5251805;28;20041;-78
2022/04/04 02:03:44;;;;;;;9.67;6.37;;;;;;;2.01;72.36;101647.19;5253403;28;20784;-78
2022/04/04 02:06:18;;;;;;;9.63;6.38;;;;;;;2.02;72.24;101645.47;5234462;28;20279;-78
2022/04/04 02:08:50;;;;;;;10.63;6.90;;;;;;;1.97;72.36;101644.66;5252871;28;20463;-77
2022/04/04 02:11:22;;;;;;;11.63;7.47;;;;;;;2.04;72.23;101633.38;5252789;28;20051;-79
2022/04/04 02:13:54;;;;;;;9.60;6.60;;;;;;;2.01;72.37;101635.97;5234661;28;20395;-78
2022/04/04 02:16:26;;;;;;;11.73;7.07;;;;;;;1.98;72.43;101625.69;5251808;28;20408;-78
2022/04/04 02:18:58;;;;;;;11.23;6.13;;;;;;;1.97;72.42;101624.84;5252308;28;20021;-78
2022/04/04 02:21:29;;;;;;;10.13;6.63;;;;;;;1.99;72.33;101624.81;5252416;28;20091;-78
2022/04/04 02:24:00;;;;;;;7.83;6.00;;;;;;;1.97;72.75;101624.84;5252438;28;20021;-77
2022/04/04 02:26:31;;;;;;;10.77;6.87;;;;;;;1.91;72.61;101605.09;5252880;28;20498;-78
2022/04/04 02:29:03;;;;;;;11.43;6.83;;;;;;;1.99;72.75;101609.31;5251824;28;20021;-77
2022/04/04 02:31:34;;;;;;;8.13;6.10;;;;;;;2.02;72.15;101597.22;5252817;28;20021;-77
2022/04/04 02:34:06;;;;;;;8.93;6.50;;;;;;;1.97;72.60;101601.59;5252658;28;20403;-78
2022/04/04 02:36:37;;;;;;;9.83;5.90;;;;;;;2.00;72.66;101598.09;5252177;28;20490;-79
2022/04/04 02:39:08;;;;;;;11.73;6.47;;;;;;;1.91;73.01;101589.59;5255540;28;20422;-78
2022/04/04 02:41:39;;;;;;;12.67;7.57;;;;;;;1.99;72.66;101589.47;5256574;28;20048;-79
2022/04/04 02:44:11;;;;;;;13.70;6.57;;;;;;;1.98;73.25;101585.19;5255291;28;20097;-78
2022/04/04 02:46:43;;;;;;;13.43;7.03;;;;;;;2.01;73.16;101581.72;5257131;28;20035;-78
2022/04/04 02:49:14;;;;;;;8.50;6.10;;;;;;;2.07;72.49;101578.22;5237481;28;20292;-78
2022/04/04 02:51:45;;;;;;;11.40;5.83;;;;;;;2.01;72.70;101553.28;5256866;28;20027;-78
2022/04/04 02:54:16;;;;;;;7.93;6.33;;;;;;;2.04;72.69;101561.03;5255035;28;20265;-78
2022/04/04 02:56:48;;;;;;;10.00;6.20;;;;;;;2.03;72.88;101552.41;5258014;28;20021;-78
2022/04/04 02:59:19;;;;;;;11.17;6.10;;;;;;;2.09;73.46;101558.38;5258497;28;20021;-78
2022/04/04 03:01:50;;;;;;;10.87;6.07;;;;;;;2.09;73.10;101551.50;5256135;28;20009;-79
2022/04/04 03:04:21;;;;;;;7.67;5.70;;;;;;;2.06;73.19;101543.75;5255560;28;20090;-78
2022/04/04 03:06:53;;;;;;;9.17;6.20;;;;;;;2.03;73.16;101531.75;5255285;28;20048;-78
2022/04/04 03:09:24;;;;;;;11.73;6.30;;;;;;;2.13;72.79;101526.47;5237848;28;20398;-78
2022/04/04 03:11:55;;;;;;;12.17;6.07;;;;;;;2.08;73.25;101517.91;5255971;28;20104;-78
2022/04/04 03:14:26;;;;;;;10.30;6.27;;;;;;;2.09;73.42;101519.63;5254332;28;20517;-79
2022/04/04 03:16:58;;;;;;;10.20;6.70;;;;;;;1.96;73.82;101505.97;5254285;28;20035;-79
2022/04/04 03:19:29;;;;;;;10.77;5.60;;;;;;;2.13;73.61;101516.13;5255346;28;20052;-78
2022/04/04 03:22:00;;;;;;;20.33;8.33;;;;;;;2.08;74.06;101511.00;5255247;28;20040;-78
2022/04/04 03:24:31;;;;;;;9.03;6.27;;;;;;;2.09;74.15;101497.22;5255908;28;20502;-78
2022/04/04 03:27:04;;;;;;;10.60;5.50;;;;;;;2.13;74.38;101505.78;5255807;28;20024;-78
2022/04/04 03:29:35;;;;;;;10.33;6.13;;;;;;;2.13;74.87;101495.44;5254442;28;20013;-78
2022/04/04 03:32:07;;;;;;;7.90;5.30;;;;;;;2.09;74.69;101488.59;5255420;28;20040;-78
2022/04/04 03:34:38;;;;;;;11.47;5.87;;;;;;;2.17;74.68;101482.47;5255963;28;20139;-79
2022/04/04 03:37:11;;;;;;;8.03;5.57;;;;;;;2.18;74.91;101481.56;5254941;28;20180;-78
2022/04/04 03:39:43;;;;;;;8.00;5.83;;;;;;;2.12;75.30;101468.75;5255394;28;20108;-78
2022/04/04 03:42:14;;;;;;;6.63;5.13;;;;;;;2.12;75.39;101454.97;5254952;28;20480;-78
2022/04/04 03:44:46;;;;;;;13.50;6.67;;;;;;;2.21;75.18;101464.31;5254591;28;20823;-79
2022/04/04 03:47:18;;;;;;;9.43;5.73;;;;;;;2.20;75.41;101454.88;5236907;28;20027;-77
2022/04/04 03:49:50;;;;;;;9.90;6.03;;;;;;;2.27;75.49;101456.50;5254085;28;20104;-77
2022/04/04 03:52:21;;;;;;;7.93;6.17;;;;;;;2.27;75.55;101451.31;5269275;28;20017;-77
2022/04/04 03:54:53;;;;;;;10.37;6.00;;;;;;;2.27;75.86;101441.81;5254992;28;20029;-77
2022/04/04 03:57:24;;;;;;;13.57;6.80;;;;;;;2.30;75.54;101446.09;5255119;28;20099;-78
2022/04/04 03:59:55;;;;;;;10.67;6.43;;;;;;;2.24;75.85;101435.81;5254343;28;20037;-77
2022/04/04 04:02:27;;;;;;;12.80;6.67;;;;;;;2.30;76.02;101441.75;5254838;28;20052;-77
2022/04/04 04:04:59;;;;;;;9.43;6.27;;;;;;;2.25;76.25;101433.22;5254055;28;20033;-77
2022/04/04 04:07:30;;;;;;;9.80;5.93;;;;;;;2.24;76.43;101425.50;5254973;28;20430;-77
2022/04/04 04:10:03;;;;;;;9.40;6.13;;;;;;;2.23;76.39;101422.06;5254730;28;20075;-79
2022/04/04 04:12:34;;;;;;;14.50;6.70;;;;;;;2.37;76.21;101421.84;5254773;28;20041;-79
2022/04/04 04:15:14;;;;;;;12.53;6.93;;;;;;;2.39;76.00;101414.91;5253206;28;20056;-79
2022/04/04 04:17:46;;;;;;;8.03;6.13;;;;;;;2.34;76.78;101410.72;5254774;28;20046;-78
2022/04/04 04:20:31;;;;;;;10.23;7.20;;;;;;;2.37;76.84;101410.66;5254075;28;20033;-78
2022/04/04 04:23:05;;;;;;;10.13;6.17;;;;;;;2.36;76.95;101404.63;5254172;28;20082;-78
2022/04/04 04:25:37;;;;;;;8.25;6.15;;;;;;;2.31;77.21;101393.50;5254736;28;20040;-78
2022/04/04 04:28:09;;;;;;;15.40;6.73;;;;;;;2.35;77.31;101396.91;5235888;28;20590;-79
2022/04/04 04:30:41;;;;;;;11.90;7.13;;;;;;;2.33;77.64;101384.00;5253955;28;20024;-78
2022/04/04 04:33:12;;;;;;;10.80;6.87;;;;;;;2.40;77.32;101387.31;5253920;28;20025;-77
2022/04/04 04:35:44;;;;;;;11.57;7.57;;;;;;;2.52;76.69;101391.44;5254055;28;20060;-77
2022/04/04 04:38:15;;;;;;;10.87;6.33;;;;;;;2.44;77.17;101380.38;5253929;28;20138;-77
2022/04/04 04:40:46;;;;;;;10.97;6.57;;;;;;;2.48;77.13;101371.69;5254501;28;20032;-76
2022/04/04 04:43:18;;;;;;;10.10;6.37;;;;;;;2.46;77.09;101360.53;5253733;28;20087;-78
2022/04/04 04:45:49;;;;;;;9.97;6.57;;;;;;;2.47;77.70;101368.25;5252361;28;20112;-77
2022/04/04 04:48:21;;;;;;;10.67;7.47;;;;;;;2.48;77.54;101361.34;5253652;28;20025;-76
2022/04/04 04:50:52;;;;;;;17.17;7.57;;;;;;;2.46;77.78;101356.19;5252884;28;20467;-78
2022/04/04 04:53:23;;;;;;;12.97;6.83;;;;;;;2.51;77.67;101350.97;5253192;28;20036;-78
2022/04/04 04:55:54;;;;;;;10.83;7.10;;;;;;;2.51;77.75;101345.78;5253755;28;20051;-77
2022/04/04 04:58:26;;;;;;;13.60;6.83;;;;;;;2.46;77.86;101337.25;5253580;28;20029;-73
2022/04/04 05:00:57;;;;;;;10.73;7.03;;;;;;;2.52;78.08;101337.13;5251285;28;20071;-74
2022/04/04 05:03:29;;;;;;;14.73;6.90;;;;;;;2.56;77.75;101333.63;5251954;28;20177;-75
2022/04/04 05:06:00;;;;;;;15.80;8.43;;;;;;;2.59;77.59;101328.38;5252932;28;20029;-75
2022/04/04 05:08:31;;;;;;;14.23;9.13;;;;;;;2.68;77.24;101322.19;5218060;28;20147;-76
2022/04/04 05:11:03;;;;;;;11.97;7.00;;;;;;;2.49;77.70;101307.03;5252516;28;20033;-79
2022/04/04 05:13:35;;;;;;;10.07;7.97;;;;;;;2.61;78.01;101308.53;5250563;28;20120;-77
2022/04/04 05:16:10;;;;;;;9.73;7.57;;;;;;;2.62;77.96;101310.22;5253130;28;20043;-78
2022/04/04 05:18:44;;;;;;;11.88;8.20;;;;;;;2.70;77.60;101310.09;5252475;28;20562;-77
2022/04/04 05:21:15;;;;;;;12.63;7.15;;;;;;;2.69;77.71;101302.38;5235228;28;20033;-78
2022/04/04 05:23:47;;;;;;;11.87;7.67;;;;;;;2.71;78.25;101298.00;5253512;28;20028;-78
2022/04/04 05:26:18;;;;;;;15.03;8.17;;;;;;;2.57;78.11;101269.81;5252920;28;20028;-77
2022/04/04 05:28:49;;;;;;;11.90;8.70;;;;;;;2.71;78.45;101290.22;5252030;28;20027;-77
2022/04/04 05:31:21;;;;;;;12.33;8.17;;;;;;;2.74;77.77;101275.50;5252190;28;20059;-77
2022/04/04 05:33:54;;;;;;;13.13;8.23;;;;;;;2.86;77.31;101263.22;5251519;28;20427;-77
2022/04/04 05:36:27;;;;;;;17.63;8.93;;;;;;;2.82;77.82;101270.19;5253268;28;20037;-77
2022/04/04 05:38:58;;;;;;;15.57;7.97;;;;;;;2.92;77.45;101267.41;5251969;28;20021;-77
2022/04/04 05:41:30;;;;;;;11.50;8.40;;;;;;;2.88;77.60;101264.88;5252805;28;20051;-77
2022/04/04 05:44:02;;;;;;;10.03;7.43;;;;;;;2.74;77.84;101238.47;5251826;28;20383;-76
2022/04/04 05:46:34;;;;;;;14.50;8.07;;;;;;;2.88;77.80;101261.47;5252571;28;20029;-78
2022/04/04 05:49:06;;;;;;;14.53;9.00;;;;;;;2.87;77.44;101250.25;5251604;28;20079;-77
2022/04/04 05:51:37;;;;;;;14.77;8.20;;;;;;;2.99;77.12;101250.84;5251943;28;20036;-77
2022/04/04 05:54:09;;;;;;;12.70;7.83;;;;;;;2.93;77.17;101244.09;5252126;28;20614;-77
2022/04/04 05:56:40;;;;;;;13.87;7.93;;;;;;;2.95;77.31;101242.31;5253254;28;20872;-76
2022/04/04 05:59:13;;;;;;;16.70;8.43;;;;;;;3.00;77.48;101239.66;5251799;28;20032;-77
2022/04/04 06:01:44;;;;;;;14.53;8.47;;;;;;;2.98;77.15;101218.13;5251887;28;20550;-78
2022/04/04 06:04:15;;;;;;;11.77;8.37;;;;;;;3.04;77.14;101228.31;5252559;28;20041;-79
2022/04/04 06:06:47;;;;;;;13.03;8.30;;;;;;;3.08;77.08;101219.63;5251713;28;20133;-79
2022/04/04 06:09:18;;;;;;;16.87;9.13;;;;;;;3.16;76.71;101223.78;5233525;28;20059;-80
2022/04/04 06:11:50;;;;;;;13.90;8.57;;;;;;;3.20;76.74;101215.03;5252041;28;20025;-79
2022/04/04 06:14:22;;;;;;;10.87;8.40;;;;;;;3.17;76.32;101215.13;5253537;28;20044;-79
2022/04/04 06:16:53;;;;;;;14.17;9.43;;;;;;;3.18;76.51;101209.06;5254236;28;20036;-80
2022/04/04 06:19:27;;;;;;;13.53;9.57;;;;;;;3.29;76.08;101213.97;5228310;28;20025;-80
2022/04/04 06:21:58;;;;;;;17.00;10.05;;;;;;;3.30;75.98;101216.53;5232776;28;20029;-80
2022/04/04 06:24:31;;;;;;;15.17;10.03;;;;;;;3.28;75.95;101201.94;5255998;28;20029;-80
2022/04/04 06:27:02;;;;;;;13.80;8.67;;;;;;;3.31;75.66;101200.13;5236690;28;20094;-80
2022/04/04 06:29:33;;;;;;;14.90;9.40;;;;;;;3.41;75.39;101198.16;5239107;28;20491;-80
2022/04/04 06:32:05;;;;;;;16.37;9.47;;;;;;;3.40;75.40;101186.09;5247472;28;20772;-80
2022/04/04 06:34:38;;;;;;;14.40;9.27;;;;;;;3.46;75.34;101190.25;5257733;28;20116;-80
2022/04/04 06:37:10;;;;;;;13.73;8.97;;;;;;;3.44;74.98;101182.53;5250037;28;20029;-80
2022/04/04 06:39:42;;;;;;;12.00;8.73;;;;;;;3.46;75.40;101169.56;5258050;28;20040;-80
2022/04/04 06:42:14;;;;;;;14.60;9.93;;;;;;;3.65;74.30;101185.47;5254957;28;20037;-80
2022/04/04 06:44:45;;;;;;;12.70;8.50;;;;;;;3.68;74.72;101163.84;5240728;28;20115;-80
2022/04/04 06:47:16;;;;;;;14.67;9.03;;;;;;;3.74;74.92;101163.69;5221556;28;20033;-80
2022/04/04 06:49:48;;;;;;;12.87;9.57;;;;;;;3.80;74.48;101154.91;5253450;28;20116;-82
2022/04/04 06:52:19;;;;;;;14.23;9.17;;;;;;;3.80;74.33;101148.00;5254237;28;20036;-81
2022/04/04 06:54:50;;;;;;;15.57;8.90;;;;;;;3.79;74.38;101159.22;5257187;28;20056;-80
2022/04/04 06:57:23;;;;;;;11.80;7.73;;;;;;;3.97;73.02;101136.31;5245429;28;20091;-80
2022/04/04 06:59:54;;;;;;;14.47;8.37;;;;;;;3.92;73.80;101140.75;5252584;28;20029;-79
2022/04/04 07:02:25;;;;;;;14.40;8.77;;;;;;;3.91;73.61;101128.72;5257158;28;20043;-79
2022/04/04 07:04:56;;;;;;;21.73;9.27;;;;;;;4.07;72.64;101140.34;5262213;28;20029;-76
2022/04/04 07:07:28;;;;;;;12.60;8.27;;;;;;;4.17;71.96;101117.59;5238179;28;20021;-75
2022/04/04 07:10:00;;;;;;;12.03;8.67;;;;;;;4.14;72.81;101122.88;5257675;28;20032;-76
2022/04/04 07:12:33;;;;;;;13.33;7.20;;;;;;;4.16;72.67;101115.91;5256668;28;20371;-79
2022/04/04 07:15:05;;;;;;;15.10;8.73;;;;;;;4.31;72.10;101117.19;5254799;28;20044;-77
2022/04/04 07:17:40;;;;;;;11.93;7.93;;;;;;;4.40;71.00;101105.72;5251112;28;20037;-81
2022/04/04 07:20:13;;;;;;;10.07;7.53;;;;;;;4.39;71.09;101103.16;5264127;28;20033;-81
2022/04/04 07:22:44;;;;;;;12.73;8.13;;;;;;;4.43;70.71;101095.22;5255260;28;20032;-80
2022/04/04 07:25:16;;;;;;;12.47;7.43;;;;;;;4.47;70.59;101077.84;5242995;28;20032;-82
2022/04/04 07:27:48;;;;;;;15.27;7.83;;;;;;;4.49;70.53;101083.84;5242784;28;20029;-79
2022/04/04 07:30:20;;;;;;;11.97;8.27;;;;;;;4.51;69.93;101069.09;5251753;28;20083;-79
2022/04/04 07:32:52;;;;;;;12.63;8.00;;;;;;;4.47;69.78;101054.50;5249808;28;20104;-80
2022/04/04 07:35:23;;;;;;;14.97;8.13;;;;;;;4.60;69.88;101068.81;5259079;28;20395;-80
2022/04/04 07:37:55;;;;;;;15.80;7.20;;;;;;;4.64;69.79;101066.09;5235684;28;20035;-80
2022/04/04 07:40:27;;;;;;;13.67;8.17;;;;;;;4.59;70.11;101059.31;5262165;28;20075;-80
2022/04/04 07:42:58;;;;;;;12.10;7.80;;;;;;;4.75;69.38;101058.81;5255810;28;20104;-79
2022/04/04 07:45:31;;;;;;;12.37;8.37;;;;;;;4.71;69.94;101072.81;5225797;28;20797;-80
2022/04/04 07:48:03;;;;;;;12.70;6.90;;;;;;;4.87;68.83;101059.34;5242334;28;20021;-80
2022/04/04 07:50:36;;;;;;;15.23;7.40;;;;;;;4.77;69.58;101046.66;5236261;28;20029;-80
2022/04/04 07:53:07;;;;;;;12.00;8.33;;;;;;;4.78;70.00;101037.13;5250683;28;20028;-80
2022/04/04 07:55:40;;;;;;;16.53;9.90;;;;;;;4.89;69.64;101044.53;5256019;28;20044;-78
2022/04/04 07:58:11;;;;;;;12.33;8.17;;;;;;;4.92;69.83;101047.06;5247381;28;20092;-79
2022/04/04 08:00:42;;;;;;;12.37;8.33;;;;;;;5.09;68.63;101036.13;5253307;28;20040;-77
2022/04/04 08:03:14;;;;;;;14.97;8.70;;;;;;;5.00;69.21;101026.03;5253456;28;20541;-77
2022/04/04 08:05:45;;;;;;;17.53;8.30;;;;;;;5.11;69.27;101028.28;5253577;28;20143;-77
2022/04/04 08:08:17;;;;;;;10.37;7.90;;;;;;;5.17;68.56;101022.84;5251960;28;20029;-79
2022/04/04 08:10:48;;;;;;;16.20;8.17;;;;;;;5.28;67.87;101015.56;5259976;28;20063;-80
2022/04/04 08:13:19;;;;;;;12.97;7.97;;;;;;;5.38;67.89;101012.63;5252314;28;20624;-80
2022/04/04 08:15:52;;;;;;;9.97;7.80;;;;;;;5.44;68.63;101004.63;5255356;28;20140;-80
2022/04/04 08:18:24;;;;;;;21.93;8.67;;;;;;;5.52;68.02;101002.59;5244253;28;20116;-76
2022/04/04 08:20:57;;;;;;;12.33;7.27;;;;;;;5.60;67.44;101001.47;5257238;28;20099;-75
2022/04/04 08:23:29;;;;;;;12.27;6.97;;;;;;;5.72;66.43;100993.25;5262046;28;20426;-77
2022/04/04 08:26:01;;;;;;;13.97;7.23;;;;;;;5.72;66.92;100993.25;5260908;28;20117;-76
2022/04/04 08:28:32;;;;;;;14.50;7.90;;;;;;;5.63;66.25;100971.03;5239202;28;20112;-79
2022/04/04 08:31:04;;;;;;;14.30;7.50;;;;;;;5.84;65.25;100980.69;5253286;28;20414;-77
2022/04/04 08:33:37;;;;;;;17.37;7.10;;;;;;;5.95;64.51;100969.88;5264721;28;20067;-78
2022/04/04 08:36:08;;;;;;;17.57;6.90;;;;;;;5.90;65.07;100972.66;5265025;28;20356;-78
2022/04/04 08:38:40;;;;;;;18.43;6.90;;;;;;;5.96;64.80;100964.63;5249485;28;20052;-79
2022/04/04 08:41:11;;;;;;;17.37;7.03;;;;;;;5.93;65.19;100949.97;5252128;28;20475;-82
2022/04/04 08:43:43;;;;;;;20.07;6.87;;;;;;;6.09;63.83;100948.59;5251857;28;20240;-80
2022/04/04 08:46:15;;;;;;;24.00;6.30;;;;;;;6.15;63.76;100948.31;5256581;28;20025;-74
2022/04/04 08:48:47;;;;;;;24.87;7.53;;;;;;;6.21;63.82;100944.66;5245013;28;20149;-75
2022/04/04 08:51:18;;;;;;;32.27;8.40;;;;;;;6.21;63.42;100937.69;5251154;28;20024;-74
2022/04/04 08:53:49;;;;;;;26.50;7.03;;;;;;;6.24;62.06;100914.16;5251169;28;20503;-73
2022/04/04 08:56:23;;;;;;;21.67;7.00;;;;;;;6.28;63.07;100944.31;5251558;28;20033;-75
2022/04/04 08:58:56;;;;;;;22.58;7.35;;;;;;;6.34;62.24;100926.78;5233575;28;20514;-79
2022/04/04 09:01:27;;;;;;;27.60;6.77;;;;;;;6.33;62.42;100930.28;5253982;28;20037;-76
2022/04/04 09:04:01;;;;;;;13.77;6.23;;;;;;;6.40;62.63;100931.75;5252914;28;20440;-81
2022/04/04 09:06:46;;;;;;;28.60;6.40;;;;;;;6.40;62.96;100903.13;5252858;28;20016;-76
2022/04/04 09:09:25;;;;;;;30.02;7.63;;;;;;;6.29;63.65;100911.38;5249558;28;20021;-74
2022/04/04 09:12:08;;;;;;;23.90;7.40;;;;;;;6.38;63.38;100923.16;5233503;28;20096;-73
2022/04/04 09:14:45;;;;;;;33.07;9.13;;;;;;;6.21;64.19;100927.28;5244309;28;20450;-76
2022/04/04 09:17:18;;;;;;;19.63;7.43;;;;;;;6.29;64.27;100927.81;5227104;28;20025;-79
2022/04/04 09:19:51;;;;;;;28.42;7.22;;;;;;;6.26;64.78;100920.16;5249075;28;20036;-79
2022/04/04 09:22:23;;;;;;;29.77;7.07;;;;;;;6.20;65.22;100920.38;5258046;28;20029;-79
2022/04/04 09:24:57;;;;;;;16.77;6.20;;;;;;;6.21;65.31;100906.50;5257801;28;20021;-78
2022/04/04 09:27:30;;;;;;;;;;;;;;;6.38;64.68;100897.13;5252824;28;20126;-79
2022/04/04 09:30:06;;;;;;;25.70;7.50;;;;;;;6.07;66.11;100880.19;5251334;28;19917;-79
2022/04/04 09:32:46;;;;;;;16.30;7.50;;;;;;;6.20;66.85;100894.38;5233371;28;20033;-79
2022/04/04 09:35:18;;;;;;;26.93;7.77;;;;;;;6.09;68.73;100886.19;5259857;28;20082;-78
2022/04/04 09:37:50;;;;;;;20.80;8.10;;;;;;;6.13;69.03;100880.78;5250583;28;20075;-79
2022/04/04 09:40:24;;;;;;;18.87;9.07;;;;;;;5.97;72.25;100883.09;5254148;28;20028;-79
2022/04/04 09:42:58;;;;;;;18.63;8.55;;;;;;;6.13;72.43;100872.13;5251091;28;20028;-78
2022/04/04 09:45:30;;;;;;;21.73;8.27;;;;;;;6.01;72.39;100869.09;5261814;28;20035;-79
2022/04/04 09:48:08;;;;;;;20.40;8.00;;;;;;;6.07;72.66;100878.44;5244369;28;20483;-77
2022/04/04 09:50:46;;;;;;;20.97;8.50;;;;;;;5.99;73.26;100870.91;5252316;28;20510;-79
2022/04/04 09:53:28;;;;;;;12.03;7.93;;;;;;;6.00;73.64;100885.63;5251178;28;20036;-78
2022/04/04 09:56:03;;;;;;;10.97;8.20;;;;;;;5.89;74.89;100866.97;5268272;28;20045;-79
2022/04/04 09:58:34;;;;;;;11.87;7.77;;;;;;;5.98;73.68;100868.38;5244505;28;20036;-80
2022/04/04 10:01:06;;;;;;;13.67;8.73;;;;;;;5.91;74.88;100862.56;5254596;28;20029;-81
2022/04/04 10:03:38;;;;;;;15.10;8.50;;;;;;;5.90;75.72;100860.88;5254060;28;20018;-79
2022/04/04 10:06:12;;;;;;;13.63;7.23;;;;;;;5.92;75.23;100854.72;5252495;28;20033;-79
2022/04/04 10:08:45;;;;;;;13.82;8.35;;;;;;;5.97;74.84;100862.31;5228228;28;20120;-76
2022/04/04 10:11:17;;;;;;;13.73;7.77;;;;;;;5.82;77.30;100858.59;5250356;28;20025;-77
2022/04/04 10:13:49;;;;;;;13.20;9.50;;;;;;;5.78;77.08;100838.81;5249541;28;20083;-76
2022/04/04 10:16:22;;;;;;;11.90;9.13;;;;;;;5.81;78.91;100847.31;5249219;28;20029;-75
2022/04/04 10:18:55;;;;;;;15.10;9.10;;;;;;;5.78;79.73;100838.81;5244206;28;20032;-75
2022/04/04 10:21:27;;;;;;;13.80;9.33;;;;;;;5.90;79.55;100840.91;5249030;28;20392;-76
2022/04/04 10:24:01;;;;;;;14.40;9.70;;;;;;;5.80;80.55;100837.84;5248764;28;20510;-75
2022/04/04 10:26:34;;;;;;;14.73;8.70;;;;;;;5.88;81.27;100847.09;5246323;28;20047;-74
2022/04/04 10:29:14;;;;;;;15.83;9.63;;;;;;;5.85;82.08;100837.66;5245296;28;20024;-76
2022/04/04 10:31:53;;;;;;;13.63;8.90;;;;;;;5.87;81.14;100840.19;5251080;28;20475;-74
2022/04/04 10:34:25;;;;;;;15.13;10.47;;;;;;;5.75;82.73;100826.78;5248609;28;20029;-75
2022/04/04 10:36:58;;;;;;;15.03;9.20;;;;;;;5.88;83.16;100840.13;5243703;28;20034;-75
2022/04/04 10:39:44;;;;;;;13.83;10.03;;;;;;;5.83;85.00;100846.44;5247078;28;20098;-74
2022/04/04 10:42:32;;;;;;;15.73;10.20;;;;;;;5.89;84.97;100838.38;5248970;28;20029;-74
2022/04/04 10:45:05;;;;;;;17.33;10.37;;;;;;;5.81;86.69;100841.31;5250219;28;20056;-75
2022/04/04 10:47:44;;;;;;;14.70;10.20;;;;;;;5.74;87.45;100830.28;5248148;28;20033;-75
2022/04/04 10:50:16;;;;;;;15.50;10.63;;;;;;;5.81;87.20;100838.72;5249471;28;20024;-75
2022/04/04 10:52:48;;;;;;;14.30;9.80;;;;;;;5.88;86.42;100836.72;5250834;28;20033;-79
2022/04/04 10:55:38;;;;;;;15.20;10.27;;;;;;;5.77;88.62;100831.94;5232579;28;20033;-76
2022/04/04 10:58:22;;;;;;;16.87;9.13;;;;;;;5.71;89.62;100830.41;5226530;28;20047;-84
2022/04/04 11:01:09;;;;;;;13.70;10.17;;;;;;;5.64;90.30;100813.38;5258368;28;20017;-78
2022/04/04 11:03:55;;;;;;;14.23;10.53;;;;;;;5.60;91.33;100817.88;5254891;28;20025;-78
2022/04/04 11:09:51;;;;;;;16.33;9.53;;;;;;;5.69;90.87;100801.88;5252567;28;20021;-78
2022/04/04 11:12:28;;;;;;;13.33;10.23;;;;;;;5.69;92.73;100804.47;5244815;28;20074;-75
2022/04/04 11:15:04;;;;;;;12.63;9.37;;;;;;;5.71;92.73;100803.59;5252615;28;20364;-76
2022/04/04 11:17:57;;;;;;;11.90;8.93;;;;;;;5.77;91.64;100795.53;5233241;28;20033;-76
2022/04/04 11:20:33;;;;;;;12.43;10.13;;;;;;;5.57;93.63;100798.03;5250334;28;20044;-77
2022/04/04 11:23:10;;;;;;;15.77;10.00;;;;;;;5.59;95.22;100789.31;5263703;28;20398;-81
2022/04/04 11:25:53;;;;;;;11.90;8.93;;;;;;;5.74;93.10;100791.28;5263360;28;20109;-82
2022/04/04 11:28:31;;;;;;;10.57;9.20;;;;;;;5.54;93.25;100779.97;5248073;28;20525;-75
2022/04/04 11:31:10;;;;;;;11.07;9.30;;;;;;;5.68;92.91;100795.00;5252009;28;20037;-74
2022/04/04 11:33:48;;;;;;;12.43;9.07;;;;;;;5.60;93.34;100788.44;5255039;28;20048;-76
2022/04/04 11:36:25;;;;;;;12.93;9.07;;;;;;;5.60;94.31;100789.28;5254375;28;20075;-75
2022/04/04 11:39:03;;;;;;;12.70;9.43;;;;;;;5.56;93.88;100785.09;5251170;28;20032;-76
2022/04/04 11:41:46;;;;;;;13.97;10.07;;;;;;;5.58;92.76;100772.91;5236188;28;20036;-76
2022/04/04 11:44:25;;;;;;;9.90;8.57;;;;;;;5.49;93.35;100768.91;5251900;28;20021;-76
2022/04/04 11:47:05;;;;;;;10.10;8.40;;;;;;;5.57;92.49;100774.66;5248652;28;20423;-76
2022/04/04 11:49:38;;;;;;;10.43;8.97;;;;;;;5.44;94.15;100776.03;5254321;28;20108;-76
2022/04/04 11:52:15;;;;;;;8.87;7.67;;;;;;;5.53;90.87;100760.06;5233452;28;20488;-77
2022/04/04 11:54:50;;;;;;;11.60;8.30;;;;;;;5.37;92.92;100767.66;5255564;28;20071;-76
2022/04/04 11:57:22;;;;;;;10.63;8.80;;;;;;;5.43;93.21;100769.13;5247195;28;20090;-74
2022/04/04 11:59:56;;;;;;;9.67;8.67;;;;;;;5.44;93.04;100765.66;5251594;28;20124;-75